NOAA/GLERL Met Station at Chicago, IL

Previous 3 Hours (2 minute increments)
See also Previous 5 Days (top of hour)
Jump down to Data
Switch to [English][Metric]
Zoom: Click and drag, Pan: shift-click and drag, Unzoom: double-click, Unzoom All




See also 1-day windrose plot


NOAA/GLERL Met Station at Chicago, IL

Previous 3 Hours (2 minute increments)
See also Previous 5 Days (top of hour only)
Jump up to Graphs
Switch to [English][Metric]
                  Wind  Wind  Wind   Air   Dew   Rel
                   Spd   Gst   Dir  Temp    Pt   Hum
YYYY-MM-DD   CST   kts   kts   deg     F     F     %
2017-02-25 21:06  13.8  16.9   280  27.1  15.4  61.0
2017-02-25 21:04  11.9  13.2   289  27.0  14.9  60.0
2017-02-25 21:02  12.6  14.6   289  27.0  14.5  59.0
2017-02-25 21:00  14.8  17.9   292  26.8  14.2  58.8
2017-02-25 20:58  14.2  15.4   293  27.0  15.4  61.5
2017-02-25 20:56  13.4  16.3   285  27.1  15.8  61.9
2017-02-25 20:54  12.4  15.7   279  27.1  15.7  61.7
2017-02-25 20:52  13.0  15.7   280  27.3  16.7  63.9
2017-02-25 20:50  12.6  15.6   287  27.1  15.8  61.9
2017-02-25 20:48  13.0  15.9   281  27.1  16.1  62.7
2017-02-25 20:46  14.2  16.5   273  27.1  15.9  62.2
2017-02-25 20:44  13.6  15.6   273  27.0  15.5  61.8
2017-02-25 20:42  14.2  18.1   281  27.0  15.4  61.3
2017-02-25 20:40  14.4  17.7   281  27.0  15.1  60.6
2017-02-25 20:38  14.4  16.1   277  27.0  15.2  60.8
2017-02-25 20:36  16.1  17.1   272  26.8  15.0  60.8
2017-02-25 20:34  15.7  17.1   269  26.8  14.8  60.3
2017-02-25 20:32  14.6  16.3   276  27.0  15.1  60.6
2017-02-25 20:30  13.6  16.3   279  27.0  15.5  61.7
2017-02-25 20:28  11.7  12.8   280  27.0  15.2  61.0
2017-02-25 20:26  14.0  16.5   275  26.8  14.7  60.1
2017-02-25 20:24  13.2  17.1   280  26.8  14.7  60.0
2017-02-25 20:22  14.6  17.9   279  27.0  15.3  61.1
2017-02-25 20:20  12.2  14.8   284  27.0  15.2  60.9
2017-02-25 20:18  12.6  13.8   288  27.0  15.1  60.6
2017-02-25 20:16  14.2  17.3   289  27.1  15.6  61.5
2017-02-25 20:14  14.2  17.7   283  27.0  15.1  60.5
2017-02-25 20:12  14.0  16.3   282  27.0  15.2  60.8
2017-02-25 20:10  13.2  15.9   287  27.0  15.2  60.9
2017-02-25 20:08  14.2  15.9   288  26.8  14.7  59.9
2017-02-25 20:06  14.6  17.1   282  26.8  14.7  59.9
2017-02-25 20:04  15.4  17.7   288  27.0  15.2  61.0
2017-02-25 20:02  13.4  17.3   290  27.0  15.2  60.8
2017-02-25 20:00  14.0  16.5   290  26.8  14.4  59.2
2017-02-25 19:58  15.9  18.7   291  26.8  14.7  60.0
2017-02-25 19:56  14.2  16.1   289  26.8  14.5  59.6
2017-02-25 19:54  14.0  16.1   284  26.8  14.3  59.1
2017-02-25 19:52  15.4  18.3   290  27.0  15.1  60.7
2017-02-25 19:50  13.8  17.3   285  26.8  14.7  60.0
2017-02-25 19:48  13.2  15.7   282  27.1  15.9  62.2
2017-02-25 19:46  13.6  16.3   288  27.1  15.7  61.8
2017-02-25 19:44  13.4  14.8   286  27.1  16.1  62.8
2017-02-25 19:42  12.4  13.6   289  27.1  16.1  62.8
2017-02-25 19:40  12.6  15.4   280  27.0  15.2  60.9
2017-02-25 19:38  16.5  19.1   278  27.0  15.0  60.3
2017-02-25 19:36  14.6  18.1   288  27.3  16.2  62.6
2017-02-25 19:34  14.2  15.9   303  27.3  16.1  62.3
2017-02-25 19:32  14.4  18.3   292  27.3  16.3  62.9
2017-02-25 19:30  15.0  18.3   297  27.0  15.2  60.8
2017-02-25 19:28  15.0  18.3   294  26.8  14.4  59.3
2017-02-25 19:26  16.7  22.0   290  26.8  14.5  59.5
2017-02-25 19:24  16.9  20.2   289  27.0  14.9  60.1
2017-02-25 19:22  16.1  17.9   294  27.0  15.0  60.3
2017-02-25 19:20  18.7  20.2   288  26.8  14.4  59.2
2017-02-25 19:18  16.7  19.4   286  26.8  14.5  59.6
2017-02-25 19:16  16.3  20.2   287  26.6  14.0  58.6
2017-02-25 19:14  16.5  19.4   288  26.8  14.5  59.5
2017-02-25 19:12  15.6  18.7   292  27.0  15.0  60.3
2017-02-25 19:10  16.1  18.5   291  26.6  13.9  58.5
2017-02-25 19:08  17.9  19.2   291  26.8  14.2  58.7
2017-02-25 19:06  15.6  17.7   286  27.1  15.3  60.7
2017-02-25 19:04  16.3  18.3   287  27.0  14.9  60.0
2017-02-25 19:02  18.5  20.6   284  27.0  14.6  59.4
2017-02-25 19:00  20.8  22.9   279  27.0  14.7  59.5
2017-02-25 18:58  18.7  21.2   281  27.0  14.6  59.2
2017-02-25 18:56  18.9  21.8   285  26.8  13.9  58.0
2017-02-25 18:54  17.7  21.6   286  27.0  14.5  59.1
2017-02-25 18:52  18.9  22.4   285  26.8  14.1  58.4
2017-02-25 18:50  19.1  21.8   285  26.8  14.1  58.5
2017-02-25 18:48  19.4  22.7   295  27.0  14.7  59.5
2017-02-25 18:46  17.1  20.4   303  27.1  15.2  60.4
2017-02-25 18:44  20.0  24.7   290  27.0  14.4  58.9
2017-02-25 18:42  17.1  22.6   297  27.1  15.5  61.2
2017-02-25 18:40  16.1  19.8   296  26.8  14.1  58.4
2017-02-25 18:38  19.8  21.8   296  27.1  15.0  59.9
2017-02-25 18:36  18.3  21.6   283  27.1  15.2  60.5
2017-02-25 18:34  14.8  17.1   282  27.3  15.7  61.2
2017-02-25 18:32  14.8  17.7   284  27.1  15.3  60.6
2017-02-25 18:30  16.1  19.1   282  27.1  15.4  60.9
2017-02-25 18:28  16.3  18.1   284  27.0  15.0  60.3
2017-02-25 18:26  17.9  20.2   284  26.8  14.2  58.8
2017-02-25 18:24  18.5  20.2   281  27.1  15.3  60.8
2017-02-25 18:22  16.9  19.8   285  26.8  14.1  58.5
2017-02-25 18:20  19.4  21.6   288  26.8  14.0  58.3
2017-02-25 18:18  19.2  22.9   288  27.0  14.8  59.9
2017-02-25 18:16  17.3  20.6   285  26.8  14.3  59.1
2017-02-25 18:14  19.8  22.7   291  26.8  14.3  59.1
2017-02-25 18:12  20.2  23.1   289  27.0  15.0  60.3
2017-02-25 18:10  19.6  21.6   294  26.8  14.3  59.1
2017-02-25 18:08  18.9  21.8   294  26.8  14.7  59.9
2017-02-25 18:06  19.8  22.9   295  27.0  15.1  60.7